Time;durP1;ratioP1;P1;durP2;ratioP2;P2;SDS_P1;SDS_P2;PMS_P1;PMS_P2;Temp;Humidity;BMP_temperature;BMP_pressure;BME280_temperature;BME280_humidity;BME280_pressure;Samples;Min_cycle;Max_cycle;Signal;HPM_P1;HPM_P2
2022/04/13 00:01:29;;;;;;;13.98;7.47;;;12.30;99.90;;;;;;4807767;29;20481;-85
2022/04/13 00:03:55;;;;;;;14.15;7.32;;;12.30;99.90;;;;;;4808304;29;20054;-85
2022/04/13 00:06:21;;;;;;;12.60;6.25;;;12.30;99.90;;;;;;4808308;29;20507;-85
2022/04/13 00:08:46;;;;;;;13.45;6.57;;;12.30;99.90;;;;;;4807418;29;20065;-85
2022/04/13 00:11:13;;;;;;;12.90;6.20;;;12.20;99.90;;;;;;4807979;29;20053;-85
2022/04/13 00:13:40;;;;;;;12.48;5.78;;;12.20;99.90;;;;;;4807965;29;20062;-85
2022/04/13 00:16:06;;;;;;;11.25;5.30;;;12.10;99.90;;;;;;4807317;29;20510;-85
2022/04/13 00:18:31;;;;;;;12.07;5.97;;;12.10;99.90;;;;;;4807922;29;20051;-85
2022/04/13 00:20:57;;;;;;;11.38;5.47;;;12.10;99.90;;;;;;4824404;29;20530;-85
2022/04/13 00:23:22;;;;;;;12.75;6.25;;;12.00;99.90;;;;;;4807246;29;20058;-85
2022/04/13 00:25:48;;;;;;;13.05;5.90;;;12.00;99.90;;;;;;4824349;29;20172;-85
2022/04/13 00:28:14;;;;;;;13.02;6.78;;;12.00;99.90;;;;;;4831163;23;20396;-85
2022/04/13 00:30:40;;;;;;;12.75;6.60;;;12.00;99.90;;;;;;4823570;29;20043;-85
2022/04/13 00:33:05;;;;;;;12.90;6.80;;;12.00;99.90;;;;;;4823479;29;20444;-85
2022/04/13 00:35:31;;;;;;;13.52;7.30;;;12.00;99.90;;;;;;4823398;29;20089;-85
2022/04/13 00:37:57;;;;;;;13.25;7.43;;;12.00;99.90;;;;;;4823250;29;20051;-85
2022/04/13 00:40:23;;;;;;;12.60;6.32;;;12.00;99.90;;;;;;4824424;29;20125;-85
2022/04/13 00:42:49;;;;;;;13.50;6.35;;;12.00;99.90;;;;;;4824093;29;20125;-85
2022/04/13 00:45:14;;;;;;;12.98;6.05;;;12.00;99.90;;;;;;4823508;29;20050;-85
2022/04/13 00:47:41;;;;;;;11.75;6.65;;;12.00;99.90;;;;;;4824042;29;20061;-85
2022/04/13 00:50:08;;;;;;;11.77;6.00;;;12.00;99.90;;;;;;4824265;29;20130;-85
2022/04/13 00:52:37;;;;;;;12.23;6.68;;;11.90;99.90;;;;;;4823438;29;20121;-85
2022/04/13 00:55:07;;;;;;;13.63;6.75;;;11.90;99.90;;;;;;4822525;29;20157;-85
2022/04/13 00:57:35;;;;;;;12.38;6.50;;;11.80;99.90;;;;;;4823495;29;20054;-85
2022/04/13 01:00:03;;;;;;;15.35;6.60;;;11.80;99.90;;;;;;4822481;29;20081;-85
2022/04/13 01:02:30;;;;;;;13.05;6.35;;;11.80;99.90;;;;;;4822980;29;20141;-84
2022/04/13 01:04:59;;;;;;;11.90;6.30;;;11.80;99.90;;;;;;4823182;29;20059;-85
2022/04/13 01:07:25;;;;;;;11.88;6.20;;;11.70;99.90;;;;;;4824044;29;20066;-84
2022/04/13 01:09:52;;;;;;;16.27;6.88;;;11.70;99.90;;;;;;4823485;29;20042;-85
2022/04/13 01:12:17;;;;;;;13.38;6.70;;;11.70;99.90;;;;;;4823393;29;20076;-85
2022/04/13 01:14:43;;;;;;;13.15;6.38;;;11.60;99.90;;;;;;4822385;29;20050;-84
2022/04/13 01:17:08;;;;;;;14.65;6.60;;;11.60;99.90;;;;;;4823744;29;20054;-85
2022/04/13 01:19:34;;;;;;;12.40;6.20;;;11.60;99.90;;;;;;4823772;29;20046;-85
2022/04/13 01:22:17;;;;;;;15.13;6.60;;;11.60;99.90;;;;;;4823532;29;20050;-84
2022/04/13 01:24:42;;;;;;;12.98;6.30;;;11.50;99.90;;;;;;4822299;29;20065;-85
2022/04/13 01:27:08;;;;;;;12.52;6.40;;;11.50;99.90;;;;;;4822952;29;20058;-85
2022/04/13 01:29:34;;;;;;;12.68;6.18;;;11.40;99.90;;;;;;4825724;29;20098;-85
2022/04/13 01:31:59;;;;;;;12.35;6.38;;;11.40;99.90;;;;;;4825820;29;20054;-85
2022/04/13 01:34:25;;;;;;;11.23;6.28;;;11.40;99.90;;;;;;4825397;29;20047;-85
2022/04/13 01:36:51;;;;;;;12.15;5.95;;;11.30;99.90;;;;;;4826859;29;20515;-85
2022/04/13 01:39:16;;;;;;;11.05;6.05;;;11.30;99.90;;;;;;4825808;29;20490;-84
2022/04/13 01:41:42;;;;;;;11.65;6.38;;;11.30;99.90;;;;;;4825989;29;20058;-85
2022/04/13 01:44:08;;;;;;;11.93;6.10;;;11.20;99.90;;;;;;4825518;29;20042;-84
2022/04/13 01:46:33;;;;;;;12.90;6.47;;;11.40;99.90;;;;;;4825548;29;20054;-84
2022/04/13 01:48:59;;;;;;;12.00;6.40;;;11.10;99.90;;;;;;4824920;29;20087;-84
2022/04/13 01:51:24;;;;;;;12.02;6.97;;;11.10;99.90;;;;;;4825703;29;20050;-85
2022/04/13 01:53:50;;;;;;;13.07;6.65;;;11.00;99.90;;;;;;4824720;29;20106;-84
2022/04/13 01:56:16;;;;;;;12.18;7.07;;;11.40;99.90;;;;;;4825494;29;20045;-84
2022/04/13 01:58:42;;;;;;;15.60;6.47;;;11.40;99.90;;;;;;4826459;29;20527;-84
2022/04/13 02:01:08;;;;;;;13.30;7.00;;;10.90;99.90;;;;;;4824575;29;20055;-84
2022/04/13 02:03:33;;;;;;;12.60;7.63;;;10.90;99.90;;;;;;4825297;29;20050;-84
2022/04/13 02:05:59;;;;;;;13.07;6.75;;;10.80;99.90;;;;;;4824338;29;20499;-84
2022/04/13 02:08:26;;;;;;;14.23;7.72;;;10.80;99.90;;;;;;4826107;29;20102;-85
2022/04/13 02:10:52;;;;;;;13.57;7.25;;;10.80;99.90;;;;;;4826434;29;20183;-85
2022/04/13 02:13:20;;;;;;;15.07;7.63;;;10.70;99.90;;;;;;4825641;29;20043;-85
2022/04/13 02:15:46;;;;;;;14.00;7.60;;;10.70;99.90;;;;;;4824305;29;20080;-84
2022/04/13 02:18:11;;;;;;;13.43;7.45;;;10.60;99.90;;;;;;4826734;29;20038;-84
2022/04/13 02:20:37;;;;;;;14.13;7.25;;;10.60;99.90;;;;;;4826315;29;20074;-84
2022/04/13 02:23:02;;;;;;;14.85;7.32;;;10.60;99.90;;;;;;4825368;29;20087;-85
2022/04/13 02:25:28;;;;;;;14.38;7.47;;;10.60;99.90;;;;;;4826375;29;20425;-84
2022/04/13 02:27:54;;;;;;;13.57;7.07;;;10.70;99.90;;;;;;4824528;29;20093;-85
2022/04/13 02:30:19;;;;;;;14.20;7.90;;;10.50;99.90;;;;;;4825309;29;20058;-84
2022/04/13 02:32:45;;;;;;;13.75;7.18;;;10.40;99.90;;;;;;4826119;29;20054;-85
2022/04/13 02:35:13;;;;;;;13.38;7.55;;;10.40;99.90;;;;;;4825093;29;20057;-84
2022/04/13 02:37:39;;;;;;;15.15;7.05;;;10.40;99.90;;;;;;4824075;29;20058;-84
2022/04/13 02:40:09;;;;;;;12.98;7.22;;;10.30;99.90;;;;;;4826201;29;20054;-84
2022/04/13 02:42:36;;;;;;;17.25;8.00;;;10.30;99.90;;;;;;4824598;29;20054;-84
2022/04/13 02:45:03;;;;;;;12.35;7.07;;;10.20;99.90;;;;;;4824791;29;20042;-84
2022/04/13 02:47:31;;;;;;;13.02;7.63;;;10.20;99.90;;;;;;4825682;29;20054;-84
2022/04/13 02:49:56;;;;;;;13.32;7.05;;;10.20;99.90;;;;;;4825645;29;20089;-84
2022/04/13 02:52:23;;;;;;;14.15;7.30;;;10.20;99.90;;;;;;4823949;29;20487;-85
2022/04/13 02:54:49;;;;;;;14.88;7.70;;;10.10;99.90;;;;;;4825673;29;20042;-84
2022/04/13 02:57:14;;;;;;;14.35;7.90;;;10.10;99.90;;;;;;4825413;29;20509;-84
2022/04/13 02:59:40;;;;;;;15.68;7.95;;;10.10;99.90;;;;;;4825550;29;20124;-84
2022/04/13 03:02:06;;;;;;;14.73;8.20;;;10.10;99.90;;;;;;4825437;29;20046;-84
2022/04/13 03:04:32;;;;;;;15.25;8.25;;;10.10;99.90;;;;;;4823981;29;20058;-84
2022/04/13 03:06:58;;;;;;;14.20;8.25;;;10.10;99.90;;;;;;4824133;29;20063;-85
2022/04/13 03:09:24;;;;;;;13.20;7.93;;;10.00;99.90;;;;;;4824369;29;20380;-84
2022/04/13 03:11:50;;;;;;;18.73;8.82;;;10.00;99.90;;;;;;4825100;29;20130;-85
2022/04/13 03:14:15;;;;;;;15.30;8.50;;;9.90;99.90;;;;;;4824575;29;20065;-84
2022/04/13 03:16:41;;;;;;;16.98;9.23;;;9.90;99.90;;;;;;4824975;29;20483;-85
2022/04/13 03:19:06;;;;;;;14.70;8.45;;;9.90;99.90;;;;;;4824907;29;20051;-84
2022/04/13 03:21:32;;;;;;;16.40;9.00;;;9.90;99.90;;;;;;4825285;29;20133;-84
2022/04/13 03:23:57;;;;;;;15.75;9.52;;;9.90;99.90;;;;;;4824743;29;20058;-84
2022/04/13 03:26:23;;;;;;;18.20;9.50;;;9.80;99.90;;;;;;4823610;29;20058;-85
2022/04/13 03:28:49;;;;;;;14.82;8.88;;;9.80;99.90;;;;;;4838184;29;20055;-84
2022/04/13 03:31:16;;;;;;;14.80;9.10;;;9.80;99.90;;;;;;4841118;29;20053;-84
2022/04/13 03:33:42;;;;;;;15.00;9.05;;;9.70;99.90;;;;;;4826951;29;20061;-84
2022/04/13 03:36:08;;;;;;;16.67;9.93;;;9.70;99.90;;;;;;4828741;29;20051;-84
2022/04/13 03:38:34;;;;;;;15.77;9.48;;;9.70;99.90;;;;;;4823836;29;20098;-84
2022/04/13 03:41:03;;;;;;;18.27;10.02;;;9.70;99.90;;;;;;4823236;29;20055;-84
2022/04/13 03:43:28;;;;;;;18.83;10.02;;;9.70;99.90;;;;;;4823944;29;20054;-84
2022/04/13 03:45:54;;;;;;;19.70;10.95;;;9.70;99.90;;;;;;4824613;29;20452;-84
2022/04/13 03:48:20;;;;;;;19.35;10.15;;;9.70;99.90;;;;;;4823146;29;20089;-84
2022/04/13 03:50:46;;;;;;;18.55;10.30;;;9.70;99.90;;;;;;4823279;29;20130;-84
2022/04/13 03:53:11;;;;;;;18.98;10.55;;;9.70;99.90;;;;;;4823302;29;20111;-84
2022/04/13 03:55:37;;;;;;;19.15;9.95;;;9.70;99.90;;;;;;4823018;29;20043;-85
2022/04/13 03:58:03;;;;;;;20.88;9.95;;;9.80;99.90;;;;;;4824880;29;20050;-84
2022/04/13 04:00:28;;;;;;;19.88;10.30;;;9.80;99.90;;;;;;4824092;29;20399;-84
2022/04/13 04:02:54;;;;;;;16.02;10.48;;;9.80;99.90;;;;;;4823051;29;20061;-84
2022/04/13 04:05:20;;;;;;;18.70;10.05;;;9.80;99.90;;;;;;4824367;29;20062;-85
2022/04/13 04:07:46;;;;;;;16.88;9.80;;;9.80;99.90;;;;;;4821811;29;20555;-85
2022/04/13 04:10:12;;;;;;;24.20;11.00;;;9.80;99.90;;;;;;4824730;29;20125;-85
2022/04/13 04:12:41;;;;;;;19.13;11.48;;;9.80;99.90;;;;;;4823868;29;20084;-85
2022/04/13 04:15:09;;;;;;;19.63;11.57;;;9.90;99.90;;;;;;4824061;29;20054;-85
2022/04/13 04:17:35;;;;;;;17.10;10.35;;;9.90;99.90;;;;;;4824708;29;20046;-85
2022/04/13 04:20:02;;;;;;;18.73;11.02;;;10.00;99.90;;;;;;4823095;29;20078;-85
2022/04/13 04:22:28;;;;;;;17.08;11.02;;;10.10;99.90;;;;;;4824191;29;20096;-85
2022/04/13 04:24:54;;;;;;;20.08;11.00;;;10.10;99.90;;;;;;4824422;29;20093;-84
2022/04/13 04:27:20;;;;;;;20.58;10.50;;;10.10;99.90;;;;;;4824257;29;20046;-85
2022/04/13 04:29:46;;;;;;;18.27;10.60;;;10.10;99.90;;;;;;4822122;29;20514;-85
2022/04/13 04:32:11;;;;;;;19.48;11.10;;;10.20;99.90;;;;;;4824711;29;20079;-85
2022/04/13 04:34:37;;;;;;;18.83;10.77;;;10.20;99.90;;;;;;4824605;29;20041;-85
2022/04/13 04:37:03;;;;;;;22.25;11.55;;;10.10;99.90;;;;;;4822311;29;20457;-86
2022/04/13 04:39:28;;;;;;;19.55;11.23;;;10.10;99.90;;;;;;4824592;29;20065;-87
2022/04/13 04:41:54;;;;;;;18.95;10.75;;;10.10;99.90;;;;;;4822662;29;20082;-86
2022/04/13 04:44:20;;;;;;;17.55;10.32;;;10.10;99.90;;;;;;4823447;29;20051;-85
2022/04/13 04:46:46;;;;;;;19.80;10.73;;;10.30;99.90;;;;;;4823832;29;20106;-85
2022/04/13 04:49:11;;;;;;;21.08;10.95;;;10.00;99.90;;;;;;4822813;29;20053;-84
2022/04/13 04:51:37;;;;;;;22.27;11.10;;;10.00;99.90;;;;;;4807117;29;20069;-85
2022/04/13 04:54:03;;;;;;;20.17;10.75;;;10.00;99.90;;;;;;4824097;29;20074;-85
2022/04/13 04:56:29;;;;;;;21.25;11.40;;;10.00;99.90;;;;;;4824035;29;20483;-85
2022/04/13 04:58:56;;;;;;;21.02;11.77;;;9.90;99.90;;;;;;4821831;29;20137;-85
2022/04/13 05:01:21;;;;;;;17.10;10.63;;;9.90;99.90;;;;;;4824142;29;20047;-85
2022/04/13 05:03:50;;;;;;;19.30;10.25;;;9.90;99.90;;;;;;4823124;29;20491;-85
2022/04/13 05:06:19;;;;;;;18.33;11.18;;;9.90;99.90;;;;;;4825226;29;20046;-85
2022/04/13 05:08:44;;;;;;;18.92;10.88;;;9.90;99.90;;;;;;4822505;29;20407;-85
2022/04/13 05:11:10;;;;;;;19.65;11.02;;;9.90;99.90;;;;;;4823234;29;20042;-85
2022/04/13 05:13:35;;;;;;;17.38;11.00;;;9.90;99.90;;;;;;4822591;29;20057;-85
2022/04/13 05:16:01;;;;;;;22.45;11.07;;;9.90;99.90;;;;;;4823470;29;20055;-85
2022/04/13 05:18:26;;;;;;;21.45;11.55;;;9.90;99.90;;;;;;4821813;29;20050;-85
2022/04/13 05:20:53;;;;;;;19.02;10.90;;;9.90;99.90;;;;;;4822999;29;20062;-86
2022/04/13 05:23:18;;;;;;;20.33;11.50;;;9.90;99.90;;;;;;4822844;29;20077;-85
2022/04/13 05:25:46;;;;;;;19.48;11.60;;;10.00;99.90;;;;;;4821334;29;20078;-85
2022/04/13 05:28:12;;;;;;;22.55;11.88;;;10.00;99.90;;;;;;4823435;29;20069;-85
2022/04/13 05:30:37;;;;;;;21.27;11.73;;;10.00;99.90;;;;;;4823891;29;20046;-85
2022/04/13 05:33:03;;;;;;;18.02;11.95;;;10.10;99.90;;;;;;4821625;29;20054;-85
2022/04/13 05:35:29;;;;;;;20.42;12.40;;;10.10;99.90;;;;;;4823597;29;20129;-85
2022/04/13 05:37:55;;;;;;;19.05;11.57;;;10.20;99.90;;;;;;4823452;29;20050;-85
2022/04/13 05:40:24;;;;;;;21.60;12.88;;;10.20;99.90;;;;;;4823356;29;20133;-85
2022/04/13 05:42:50;;;;;;;26.52;12.65;;;10.30;99.90;;;;;;4822279;29;20073;-85
2022/04/13 05:45:17;;;;;;;23.55;12.88;;;10.40;99.90;;;;;;4823631;29;20076;-85
2022/04/13 05:47:43;;;;;;;23.13;12.40;;;10.50;99.90;;;;;;4822426;29;20086;-85
2022/04/13 05:50:09;;;;;;;23.73;12.98;;;10.60;99.90;;;;;;4822277;29;20042;-85
2022/04/13 05:52:36;;;;;;;27.45;13.52;;;10.70;99.90;;;;;;4823366;29;20054;-85
2022/04/13 05:55:03;;;;;;;28.35;13.45;;;10.80;99.90;;;;;;4820955;29;20062;-85
2022/04/13 05:57:29;;;;;;;25.52;13.75;;;10.90;99.90;;;;;;4823569;29;20436;-85
2022/04/13 05:59:54;;;;;;;24.83;13.93;;;11.00;99.90;;;;;;4821697;29;20539;-85
2022/04/13 06:02:20;;;;;;;23.73;13.38;;;11.10;99.90;;;;;;4821985;29;20045;-86
2022/04/13 06:04:46;;;;;;;24.77;14.00;;;11.20;99.90;;;;;;4821994;29;20503;-85
2022/04/13 06:07:11;;;;;;;27.20;14.63;;;11.20;99.90;;;;;;4821484;29;20103;-85
2022/04/13 06:09:37;;;;;;;32.78;14.55;;;11.40;99.90;;;;;;4823360;29;20187;-85
2022/04/13 06:12:03;;;;;;;28.65;13.38;;;11.40;99.90;;;;;;4821715;29;20042;-85
2022/04/13 06:14:28;;;;;;;25.75;14.15;;;11.50;99.90;;;;;;4822794;29;20080;-84
2022/04/13 06:16:54;;;;;;;27.15;13.75;;;11.60;99.90;;;;;;4823464;29;20137;-94
2022/04/13 06:19:19;;;;;;;24.02;13.82;;;11.70;99.90;;;;;;4826942;29;20078;-91
2022/04/13 06:21:45;;;;;;;20.70;12.60;;;11.70;99.90;;;;;;4824201;29;20050;-90
2022/04/13 06:24:11;;;;;;;22.38;13.20;;;11.90;99.90;;;;;;4825259;29;20046;-88
2022/04/13 06:26:37;;;;;;;21.55;12.45;;;12.00;99.90;;;;;;4825092;29;20488;-89
2022/04/13 06:29:11;;;;;;;28.55;13.45;;;12.00;99.90;;;;;;4824046;29;20178;-92
2022/04/13 06:31:39;;;;;;;22.20;13.68;;;12.10;99.90;;;;;;4826221;29;20050;-90
2022/04/13 06:34:11;;;;;;;22.42;13.50;;;12.50;99.90;;;;;;4831165;29;20034;-90
2022/04/13 06:36:43;;;;;;;20.88;13.52;;;12.60;99.90;;;;;;4849616;29;20030;-89
2022/04/13 06:39:15;;;;;;;23.63;13.85;;;12.50;99.90;;;;;;4836601;29;20046;-91
2022/04/13 06:41:40;;;;;;;22.92;14.25;;;12.50;99.90;;;;;;4836819;29;20049;-93
2022/04/13 06:44:06;;;;;;;20.95;12.63;;;12.70;99.90;;;;;;4827436;29;20042;-92
2022/04/13 06:46:36;;;;;;;28.55;13.68;;;12.60;99.90;;;;;;4828001;29;20057;-92
2022/04/13 06:49:02;;;;;;;25.35;13.00;;;13.10;99.90;;;;;;4826157;29;20095;-93
2022/04/13 06:51:28;;;;;;;23.08;12.75;;;13.40;99.90;;;;;;4824780;29;20045;-87
2022/04/13 06:53:53;;;;;;;21.88;13.48;;;13.70;99.90;;;;;;4825654;29;20411;-87
2022/04/13 06:56:19;;;;;;;21.98;13.00;;;14.00;99.90;;;;;;4826500;29;20051;-92
2022/04/13 06:58:46;;;;;;;26.77;13.75;;;14.50;99.90;;;;;;4831939;29;20046;-92
2022/04/13 07:01:12;;;;;;;20.13;12.55;;;13.40;99.90;;;;;;4827199;29;20121;-93
2022/04/13 07:03:44;;;;;;;23.08;13.10;;;13.60;99.90;;;;;;4828268;29;20050;-91
2022/04/13 07:06:10;;;;;;;21.63;12.70;;;14.60;99.90;;;;;;4835601;29;20106;-91
2022/04/13 07:08:35;;;;;;;21.40;12.50;;;14.80;99.90;;;;;;4829780;29;20111;-89
2022/04/13 07:11:01;;;;;;;21.00;12.27;;;14.00;99.90;;;;;;4825107;29;20077;-90
2022/04/13 07:13:26;;;;;;;20.80;12.30;;;14.30;99.90;;;;;;4825922;29;20061;-90
2022/04/13 07:15:58;;;;;;;24.83;11.75;;;14.90;99.90;;;;;;4824556;29;20114;-95
2022/04/13 07:18:39;;;;;;;17.63;11.10;;;14.30;99.90;;;;;;4825951;29;20052;-90
2022/04/13 07:21:04;;;;;;;18.90;11.18;;;14.40;99.90;;;;;;4825278;29;20051;-95
2022/04/13 07:23:34;;;;;;;18.58;10.90;;;14.00;99.90;;;;;;4824912;29;20640;-91
2022/04/13 07:25:59;;;;;;;21.27;9.82;;;14.30;99.90;;;;;;4824872;29;20061;-88
2022/04/13 07:28:34;;;;;;;17.92;10.27;;;15.00;99.90;;;;;;4826727;29;20070;-96
2022/04/13 07:31:51;;;;;;;18.77;10.18;;;15.20;99.90;;;;;;4841380;23;20050;-93
2022/04/13 07:34:17;;;;;;;19.23;10.10;;;14.60;99.90;;;;;;4842544;29;20062;-93
2022/04/13 07:36:45;;;;;;;18.20;9.88;;;14.70;99.90;;;;;;4844443;29;20049;-93
2022/04/13 07:39:13;;;;;;;18.23;9.82;;;14.50;99.90;;;;;;4844105;29;20487;-91
2022/04/13 07:41:39;;;;;;;16.77;9.13;;;14.60;99.90;;;;;;4842120;29;20448;-92
2022/04/13 07:44:05;;;;;;;15.18;8.88;;;14.90;99.90;;;;;;4843692;29;20050;-91
2022/04/13 07:46:36;;;;;;;14.50;8.57;;;15.00;99.90;;;;;;4845208;29;20153;-93
2022/04/13 07:49:17;;;;;;;13.93;7.75;;;15.80;99.90;;;;;;4851790;29;20078;-95
2022/04/13 07:52:04;;;;;;;14.43;7.63;;;15.00;99.90;;;;;;4843417;29;20050;-94
2022/04/13 07:54:45;;;;;;;13.75;7.05;;;15.70;99.90;;;;;;4841987;29;20494;-92
2022/04/13 07:57:11;;;;;;;12.50;6.75;;;16.00;99.90;;;;;;4842483;29;20045;-93
2022/04/13 07:59:37;;;;;;;13.93;6.93;;;15.60;99.90;;;;;;4842407;29;20046;-94
2022/04/13 08:02:04;;;;;;;13.90;7.20;;;16.70;99.90;;;;;;4843374;29;20497;-93
2022/04/13 08:04:29;;;;;;;13.85;7.05;;;15.90;99.90;;;;;;4842367;29;20136;-95
2022/04/13 08:06:56;;;;;;;13.32;6.75;;;14.80;99.90;;;;;;4845399;29;20136;-94
2022/04/13 08:09:28;;;;;;;14.23;7.20;;;16.00;99.90;;;;;;4851281;29;20038;-93
2022/04/13 08:12:09;;;;;;;14.35;7.18;;;15.40;99.90;;;;;;4852501;29;20057;-94
2022/04/13 08:14:38;;;;;;;15.27;7.45;;;16.10;99.90;;;;;;4844502;29;20042;-94
2022/04/13 08:17:14;;;;;;;14.05;7.30;;;16.00;99.90;;;;;;4841612;29;20526;-92
2022/04/13 08:19:57;;;;;;;13.98;6.75;;;15.40;99.90;;;;;;4842164;29;20479;-93
2022/04/13 08:28:02;;;;;;;;;;;;;;;;;;;;;
2022/04/13 08:49:33;;;;;;;15.05;6.82;;;16.40;99.90;;;;;;4855231;29;20100;-90
2022/04/13 09:18:17;;;;;;;13.50;7.53;;;16.80;99.90;;;;;;4805338;29;20157;-90
2022/04/13 09:38:37;;;;;;;12.75;7.13;;;16.80;99.90;;;;;;4857864;29;20057;-91
2022/04/13 09:54:43;;;;;;;;;;;;;;;;;;;;;
2022/04/13 10:04:52;;;;;;;12.48;6.93;;;17.50;99.90;;;;;;4979166;23;20089;-91
2022/04/13 10:22:47;;;;;;;11.10;6.65;;;18.20;99.90;;;;;;4815678;29;20049;-90
2022/04/13 10:25:26;;;;;;;11.98;6.30;;;18.10;99.90;;;;;;4788586;29;20097;-91
2022/04/13 10:28:21;;;;;;;11.80;6.20;;;18.50;99.90;;;;;;4823526;29;20058;-89
2022/04/13 10:34:36;;;;;;;14.77;6.75;;;18.40;99.90;;;;;;4916048;23;20493;-91
2022/04/13 10:37:03;;;;;;;11.73;5.93;;;19.10;99.90;;;;;;4809276;29;20055;-90
2022/04/13 10:39:38;;;;;;;10.88;5.85;;;18.40;99.90;;;;;;4809082;29;20109;-92
2022/04/13 10:42:05;;;;;;;12.02;6.35;;;18.30;99.90;;;;;;4818598;29;20062;-93
2022/04/13 10:44:41;;;;;;;13.25;6.25;;;19.40;99.90;;;;;;4810368;29;20168;-89
2022/04/13 10:47:10;;;;;;;12.98;7.28;;;18.40;99.90;;;;;;4810539;29;20076;-87
2022/04/13 10:50:00;;;;;;;12.57;6.78;;;19.20;99.90;;;;;;4810861;29;20134;-89
2022/04/13 10:52:45;;;;;;;13.82;6.85;;;18.60;99.90;;;;;;4807809;29;20051;-89
2022/04/13 10:55:33;;;;;;;12.10;6.93;;;19.50;99.90;;;;;;4810963;29;20057;-91
2022/04/13 10:58:17;;;;;;;15.43;8.15;;;18.40;99.90;;;;;;4815657;29;20468;-90
2022/04/13 11:00:45;;;;;;;12.40;7.57;;;17.70;99.90;;;;;;4806894;29;20411;-88
2022/04/13 11:03:21;;;;;;;14.25;7.57;;;19.00;99.90;;;;;;4807227;29;20043;-90
2022/04/13 11:05:50;;;;;;;13.32;7.82;;;19.20;99.90;;;;;;4806913;29;20047;-92
2022/04/13 11:08:34;;;;;;;13.32;7.30;;;18.30;99.90;;;;;;4806728;29;20408;-92
2022/04/13 11:11:01;;;;;;;13.80;7.93;;;18.70;99.90;;;;;;4806450;29;20076;-92
2022/04/13 11:13:39;;;;;;;11.70;6.50;;;19.40;99.90;;;;;;4806633;29;20047;-92
2022/04/13 11:16:19;;;;;;;14.35;7.60;;;19.50;99.90;;;;;;4808099;29;20047;-95
2022/04/13 11:19:03;;;;;;;14.52;7.70;;;18.60;99.90;;;;;;4807207;29;20085;-93
2022/04/13 11:21:29;;;;;;;13.63;7.05;;;18.70;99.90;;;;;;4807955;29;20165;-88
2022/04/13 11:23:58;;;;;;;13.10;7.15;;;18.40;99.90;;;;;;4812493;29;20547;-91
2022/04/13 11:26:35;;;;;;;15.10;7.30;;;18.60;99.90;;;;;;4807200;29;20054;-91
2022/04/13 11:29:09;;;;;;;13.65;7.57;;;18.50;99.90;;;;;;4808857;29;20061;-92
2022/04/13 11:32:00;;;;;;;13.48;7.30;;;18.60;99.90;;;;;;4813496;29;20484;-94
2022/04/13 11:34:31;;;;;;;13.43;7.10;;;18.20;99.90;;;;;;4812368;29;20097;-90
2022/04/13 11:37:02;;;;;;;12.45;6.82;;;18.10;99.90;;;;;;4806905;29;20055;-88
2022/04/13 11:39:50;;;;;;;14.18;7.05;;;18.00;99.90;;;;;;4805466;29;20054;-87
2022/04/13 11:42:34;;;;;;;12.63;6.90;;;18.00;99.90;;;;;;4807026;29;20128;-86
2022/04/13 11:45:01;;;;;;;;;;;18.00;99.90;;;;;;4806604;29;20059;-84
2022/04/13 11:47:49;;;;;;;13.43;7.03;;;17.90;99.90;;;;;;4805673;29;19925;-86
2022/04/13 11:50:14;;;;;;;13.35;6.72;;;17.90;99.90;;;;;;4807229;29;20103;-86
2022/04/13 11:52:51;;;;;;;13.25;7.45;;;17.90;99.90;;;;;;4804961;29;20169;-88
2022/04/13 11:55:27;;;;;;;12.10;6.50;;;17.90;99.90;;;;;;4805873;29;20069;-88
2022/04/13 11:58:06;;;;;;;12.38;7.25;;;17.80;99.90;;;;;;4805739;29;20051;-88
2022/04/13 12:00:39;;;;;;;12.93;6.90;;;17.90;99.90;;;;;;4806288;29;20047;-87
2022/04/13 12:03:14;;;;;;;14.38;7.35;;;17.80;99.90;;;;;;4806026;29;20150;-87
2022/04/13 12:05:51;;;;;;;12.70;6.78;;;17.70;99.90;;;;;;4806324;29;20051;-87
2022/04/13 12:08:20;;;;;;;14.05;7.38;;;17.70;99.90;;;;;;4804694;29;20606;-87
2022/04/13 12:10:53;;;;;;;13.90;7.30;;;17.60;99.90;;;;;;4805980;29;20469;-87
2022/04/13 12:13:19;;;;;;;14.57;6.60;;;17.60;99.90;;;;;;4804600;29;20059;-88
2022/04/13 12:15:50;;;;;;;14.95;7.15;;;17.60;99.90;;;;;;4805555;29;20108;-87
2022/04/13 12:18:17;;;;;;;12.68;6.60;;;17.70;99.90;;;;;;4805165;29;20049;-87
2022/04/13 12:20:43;;;;;;;12.05;6.38;;;17.80;99.90;;;;;;4805185;29;20459;-88
2022/04/13 12:23:27;;;;;;;13.07;6.15;;;17.90;99.90;;;;;;4805161;29;20471;-87
2022/04/13 12:26:02;;;;;;;11.25;5.25;;;18.00;99.90;;;;;;4804818;29;20046;-92
2022/04/13 12:28:28;;;;;;;11.73;5.30;;;18.10;99.90;;;;;;4816348;29;20054;-90
2022/04/13 12:30:58;;;;;;;9.23;4.85;;;18.70;99.90;;;;;;4807105;29;20054;-92
2022/04/13 12:33:25;;;;;;;10.98;5.07;;;17.60;99.90;;;;;;4806137;29;20301;-91
2022/04/13 12:35:59;;;;;;;11.25;5.28;;;19.00;99.90;;;;;;4807801;29;20082;-93
2022/04/13 12:38:31;;;;;;;11.60;5.22;;;18.80;99.90;;;;;;4806868;29;20436;-91
2022/04/13 12:41:15;;;;;;;12.93;6.13;;;18.30;99.90;;;;;;4806586;29;20133;-91
2022/04/13 12:43:56;;;;;;;13.20;6.18;;;18.30;99.90;;;;;;4814994;29;20055;-90
2022/04/13 12:46:24;;;;;;;13.38;6.47;;;18.20;99.90;;;;;;4805914;29;20053;-91
2022/04/13 12:48:52;;;;;;;14.02;7.30;;;18.20;99.90;;;;;;4805128;29;20051;-92
2022/04/13 12:51:19;;;;;;;11.90;7.05;;;18.10;99.90;;;;;;4809773;29;20043;-90
2022/04/13 12:53:49;;;;;;;12.35;6.25;;;18.00;99.90;;;;;;4810232;29;20047;-92
2022/04/13 12:56:20;;;;;;;12.10;6.38;;;18.60;99.90;;;;;;4805721;29;20043;-88
2022/04/13 12:58:46;;;;;;;12.88;5.30;;;17.80;99.90;;;;;;4804631;29;20054;-88
2022/04/13 13:01:22;;;;;;;15.40;5.57;;;18.10;99.90;;;;;;4810725;29;20086;-88
2022/04/13 13:03:47;;;;;;;9.95;4.97;;;17.70;99.90;;;;;;4827497;29;20041;-88
2022/04/13 13:06:13;;;;;;;12.52;5.32;;;17.60;99.90;;;;;;4815224;29;20047;-87
2022/04/13 13:09:05;;;;;;;10.40;4.60;;;17.60;99.90;;;;;;4806978;29;20129;-88
2022/04/13 13:11:37;;;;;;;8.40;3.20;;;17.50;99.90;;;;;;4806540;29;20099;-89
2022/04/13 13:14:14;;;;;;;8.18;2.60;;;17.50;99.90;;;;;;4807098;29;20054;-88
2022/04/13 13:16:44;;;;;;;8.32;2.40;;;17.30;99.90;;;;;;4804918;29;20110;-88
2022/04/13 13:19:19;;;;;;;9.32;2.67;;;17.30;99.90;;;;;;4806327;29;20123;-88
2022/04/13 13:22:11;;;;;;;8.30;2.53;;;17.20;99.90;;;;;;4806155;29;20078;-89
2022/04/13 13:25:03;;;;;;;8.90;3.03;;;17.10;99.90;;;;;;4805171;29;20130;-86
2022/04/13 13:27:37;;;;;;;9.95;3.22;;;17.10;99.90;;;;;;4809085;29;20452;-88
2022/04/13 13:30:11;;;;;;;11.32;4.00;;;17.10;99.90;;;;;;4807773;29;20042;-86
2022/04/13 13:32:40;;;;;;;11.05;4.07;;;17.00;99.90;;;;;;4809581;29;20051;-85
2022/04/13 13:35:09;;;;;;;10.13;3.85;;;17.20;99.90;;;;;;4808037;29;20063;-86
2022/04/13 13:37:49;;;;;;;13.02;4.32;;;17.00;99.90;;;;;;4807356;29;20065;-86
2022/04/13 13:40:37;;;;;;;11.40;3.75;;;17.00;99.90;;;;;;4807631;29;20043;-86
2022/04/13 13:43:07;;;;;;;10.35;3.92;;;17.00;99.90;;;;;;4807303;29;20108;-86
2022/04/13 13:45:35;;;;;;;9.98;3.90;;;17.00;99.90;;;;;;4789811;29;20084;-86
2022/04/13 13:48:03;;;;;;;9.57;3.83;;;17.10;99.90;;;;;;4789508;30;20055;-85
2022/04/13 13:50:29;;;;;;;11.38;3.78;;;17.00;99.90;;;;;;4790834;30;20417;-85
2022/04/13 13:52:54;;;;;;;9.85;3.63;;;17.00;99.90;;;;;;4789008;30;20508;-87
2022/04/13 13:55:25;;;;;;;11.60;4.30;;;16.90;99.90;;;;;;4790315;30;20208;-87
2022/04/13 13:57:51;;;;;;;12.20;4.28;;;16.80;99.90;;;;;;4789750;30;20408;-86
2022/04/13 14:00:17;;;;;;;11.95;4.95;;;16.80;99.90;;;;;;4789316;30;20047;-85
2022/04/13 14:02:42;;;;;;;11.82;5.07;;;16.70;99.90;;;;;;4790768;30;20051;-86
2022/04/13 14:05:08;;;;;;;19.38;5.93;;;16.80;99.90;;;;;;4790033;30;20087;-86
2022/04/13 14:07:34;;;;;;;13.88;5.28;;;16.80;99.90;;;;;;4790409;30;20125;-87
2022/04/13 14:10:00;;;;;;;15.38;5.72;;;17.00;99.90;;;;;;4788978;30;20077;-87
2022/04/13 14:12:25;;;;;;;12.38;5.30;;;17.00;99.90;;;;;;4788456;30;20055;-86
2022/04/13 14:14:54;;;;;;;12.23;4.90;;;17.00;99.90;;;;;;4789270;30;20047;-87
2022/04/13 14:17:21;;;;;;;13.25;5.25;;;16.90;99.90;;;;;;4789768;30;20142;-86
2022/04/13 14:19:46;;;;;;;12.75;4.30;;;16.80;99.90;;;;;;4788731;30;20596;-87
2022/04/13 14:22:12;;;;;;;10.80;4.25;;;16.70;99.90;;;;;;4791526;29;20075;-92
2022/04/13 14:24:47;;;;;;;11.40;3.80;;;16.60;99.90;;;;;;4792612;30;20043;-88
2022/04/13 14:27:13;;;;;;;10.02;2.70;;;16.90;99.90;;;;;;4803001;29;20043;-91
2022/04/13 14:29:41;;;;;;;7.80;2.53;;;16.50;99.90;;;;;;4807034;29;20051;-90
2022/04/13 14:32:07;;;;;;;8.93;2.50;;;16.40;99.90;;;;;;4807925;29;20070;-91
2022/04/13 14:34:32;;;;;;;12.30;2.95;;;16.40;99.90;;;;;;4807933;29;20089;-90
2022/04/13 14:36:58;;;;;;;9.07;2.30;;;16.30;99.90;;;;;;4812089;29;20050;-91